createdAt,value
2023-05-14T00:01:16.038Z,102121.28
2023-05-14T00:03:42.742Z,102121.69
2023-05-14T00:06:10.931Z,102119.16
2023-05-14T00:08:37.490Z,102121.19
2023-05-14T00:11:08.996Z,102113.59
2023-05-14T00:13:37.504Z,102111.25
2023-05-14T00:16:04.293Z,102108.72
2023-05-14T00:18:30.993Z,102105.47
2023-05-14T00:21:00.170Z,102105.59
2023-05-14T00:23:26.750Z,102104.84
2023-05-14T00:25:53.250Z,102100.50
2023-05-14T00:28:20.335Z,102099.56
2023-05-14T00:30:47.147Z,102101.13
2023-05-14T00:33:16.960Z,102100.03
2023-05-14T00:35:43.588Z,102096.06
2023-05-14T00:38:11.165Z,102094.38
2023-05-14T00:40:38.142Z,102096.28
2023-05-14T00:43:04.722Z,102097.22
2023-05-14T00:45:31.373Z,102084.31
2023-05-14T00:47:57.990Z,102080.22
2023-05-14T00:50:24.940Z,102078.97
2023-05-14T00:52:51.905Z,102074.09
2023-05-14T00:55:19.164Z,102074.09
2023-05-14T00:57:46.556Z,102074.47
2023-05-14T01:00:13.867Z,102067.69
2023-05-14T01:02:40.638Z,102058.47
2023-05-14T01:05:08.467Z,102066.03
2023-05-14T01:07:41.896Z,102069.03
2023-05-14T01:10:11.332Z,102066.09
2023-05-14T01:13:07.385Z,102064.50
2023-05-14T01:15:36.181Z,102064.63
2023-05-14T01:18:13.504Z,102072.78
2023-05-14T01:20:42.853Z,102062.59
2023-05-14T01:23:12.253Z,102067.28
2023-05-14T01:25:38.816Z,102063.69
2023-05-14T01:28:19.661Z,102055.84
2023-05-14T01:30:57.317Z,102064.75
2023-05-14T01:33:30.729Z,102069.53
2023-05-14T01:35:58.506Z,102061.91
2023-05-14T01:38:28.574Z,102063.47
2023-05-14T01:40:56.714Z,102061.78
2023-05-14T01:43:23.974Z,102060.00
2023-05-14T01:45:50.721Z,102062.53
2023-05-14T01:48:17.785Z,102059.88
2023-05-14T01:50:44.294Z,102053.94
2023-05-14T01:53:10.851Z,102046.22
2023-05-14T01:55:37.372Z,102042.63
2023-05-14T01:58:03.834Z,102050.66
2023-05-14T02:00:36.572Z,102057.66
2023-05-14T02:03:03.280Z,102044.66
2023-05-14T02:05:30.073Z,102048.16
2023-05-14T02:07:56.741Z,102042.22
2023-05-14T02:10:23.501Z,102034.59
2023-05-14T02:12:50.550Z,102038.41
2023-05-14T02:15:17.308Z,102025.19
2023-05-14T02:17:43.919Z,102033.22
2023-05-14T02:20:10.884Z,102026.50
2023-05-14T02:22:39.655Z,102033.78
2023-05-14T02:25:07.206Z,102034.00
2023-05-14T02:27:35.420Z,102034.00
2023-05-14T02:30:02.096Z,102030.59
2023-05-14T02:32:28.860Z,102030.50
2023-05-14T02:34:55.487Z,102030.59
2023-05-14T02:37:22.205Z,102027.00
2023-05-14T02:39:49.424Z,102026.16
2023-05-14T02:42:16.062Z,102026.06
2023-05-14T02:44:42.643Z,102020.66
2023-05-14T02:47:10.863Z,102022.66
2023-05-14T02:49:37.446Z,102014.34
2023-05-14T02:52:04.235Z,102026.03
2023-05-14T02:54:30.834Z,102021.53
2023-05-14T02:56:57.404Z,102016.53
2023-05-14T02:59:24.902Z,102016.72
2023-05-14T03:01:52.130Z,102007.84
2023-05-14T03:04:19.327Z,102012.28
2023-05-14T03:06:45.840Z,102010.59
2023-05-14T03:09:12.511Z,102010.50
2023-05-14T03:11:39.173Z,102013.34
2023-05-14T03:14:05.892Z,102013.34
2023-05-14T03:16:32.474Z,102009.09
2023-05-14T03:18:59.066Z,102008.50
2023-05-14T03:21:26.222Z,102007.44
2023-05-14T03:23:53.792Z,102013.88
2023-05-14T03:26:21.717Z,102008.91
2023-05-14T03:28:48.681Z,102009.84
2023-05-14T03:31:15.841Z,102011.75
2023-05-14T03:33:44.206Z,102012.69
2023-05-14T03:36:10.825Z,101997.28
2023-05-14T03:38:37.445Z,102006.06
2023-05-14T03:41:03.930Z,102013.75
2023-05-14T03:43:30.773Z,102009.00
2023-05-14T03:45:57.343Z,102005.31
2023-05-14T03:48:24.004Z,102007.09
2023-05-14T03:50:51.296Z,102001.81
2023-05-14T03:53:18.028Z,102006.06
2023-05-14T03:55:44.573Z,102004.38
2023-05-14T03:58:14.131Z,102007.84
2023-05-14T04:00:42.058Z,101998.13
2023-05-14T04:03:09.170Z,101999.59
2023-05-14T04:05:36.333Z,101996.88
2023-05-14T04:08:02.958Z,101994.09
2023-05-14T04:10:29.929Z,101993.13
2023-05-14T04:12:56.432Z,101990.50
2023-05-14T04:15:24.515Z,101987.75
2023-05-14T04:17:51.200Z,101993.66
2023-05-14T04:20:17.769Z,101996.31
2023-05-14T04:22:44.521Z,101993.47
2023-05-14T04:25:11.266Z,101989.97
2023-05-14T04:27:37.717Z,101995.16
2023-05-14T04:30:04.873Z,101993.19
2023-05-14T04:32:31.535Z,101992.50
2023-05-14T04:34:58.099Z,101992.44
2023-05-14T04:37:24.545Z,101994.97
2023-05-14T04:39:51.270Z,101994.72
2023-05-14T04:42:20.117Z,101998.13
2023-05-14T04:44:51.726Z,101995.16
2023-05-14T04:47:18.568Z,101999.19
2023-05-14T04:49:45.293Z,101995.34
2023-05-14T04:52:12.128Z,101988.56
2023-05-14T04:54:38.685Z,101989.94
2023-05-14T04:57:07.522Z,101993.59
2023-05-14T04:59:37.025Z,102003.50
2023-05-14T05:02:03.675Z,101994.72
2023-05-14T05:04:30.529Z,102004.50
2023-05-14T05:06:57.069Z,102003.59
2023-05-14T05:09:23.755Z,102002.34
2023-05-14T05:11:50.212Z,102003.97
2023-05-14T05:14:16.879Z,102000.75
2023-05-14T05:16:43.542Z,102004.06
2023-05-14T05:19:10.266Z,102004.09
2023-05-14T05:21:39.384Z,101996.66
2023-05-14T05:24:06.260Z,102003.41
2023-05-14T05:26:32.741Z,102001.84
2023-05-14T05:28:59.353Z,101997.72
2023-05-14T05:31:25.989Z,102007.66
2023-05-14T05:33:52.439Z,102014.22
2023-05-14T05:36:18.894Z,102016.19
2023-05-14T05:38:45.539Z,102009.84
2023-05-14T05:41:12.197Z,102006.28
2023-05-14T05:43:38.717Z,102006.59
2023-05-14T05:46:05.187Z,102016.16
2023-05-14T05:48:31.794Z,102008.00
2023-05-14T05:50:58.494Z,102014.66
2023-05-14T05:53:24.955Z,102015.25
2023-05-14T05:55:54.387Z,102024.28
2023-05-14T05:58:20.941Z,102019.72
2023-05-14T06:00:47.488Z,102027.28
2023-05-14T06:03:14.175Z,102016.06
2023-05-14T06:05:40.960Z,102014.16
2023-05-14T06:08:07.668Z,102017.97
2023-05-14T06:10:35.035Z,102031.97
2023-05-14T06:13:01.745Z,102027.75
2023-05-14T06:15:28.236Z,102020.28
2023-05-14T06:18:03.890Z,102018.97
2023-05-14T06:20:30.472Z,102033.56
2023-05-14T06:22:56.953Z,102026.09
2023-05-14T06:25:23.426Z,102028.41
2023-05-14T06:27:49.908Z,102035.03
2023-05-14T06:30:16.430Z,102046.88
2023-05-14T06:32:43.175Z,102036.22
2023-05-14T06:35:13.108Z,102045.53
2023-05-14T06:37:39.705Z,102030.06
2023-05-14T06:40:09.082Z,102034.28
2023-05-14T06:42:35.578Z,102020.38
2023-05-14T06:45:02.264Z,102030.25
2023-05-14T06:47:32.012Z,102026.84
2023-05-14T06:49:58.793Z,102026.03
2023-05-14T06:52:25.743Z,102030.88
2023-05-14T06:54:52.288Z,102010.03
2023-05-14T06:57:18.797Z,102021.25
2023-05-14T06:59:45.368Z,102013.16
2023-05-14T07:02:12.483Z,102015.81
2023-05-14T07:04:39.076Z,102016.53
2023-05-14T07:07:05.898Z,102017.38
2023-05-14T07:09:32.360Z,102017.41
2023-05-14T07:11:58.949Z,102017.78
2023-05-14T07:14:26.717Z,102015.28
2023-05-14T07:16:53.219Z,102016.84
2023-05-14T07:19:19.756Z,102026.69
2023-05-14T07:21:46.259Z,102018.31
2023-05-14T07:24:12.707Z,102020.19
2023-05-14T07:26:39.404Z,102015.97
2023-05-14T07:29:06.398Z,102008.63
2023-05-14T07:31:33.544Z,102016.47
2023-05-14T07:33:59.989Z,102012.84
2023-05-14T07:36:29.775Z,102006.88
2023-05-14T07:38:56.362Z,102009.69
2023-05-14T07:41:22.874Z,102009.84
2023-05-14T07:43:49.674Z,102012.00
2023-05-14T07:46:16.578Z,102014.78
2023-05-14T07:48:43.214Z,102005.94
2023-05-14T07:51:09.709Z,102008.19
2023-05-14T07:53:36.200Z,102006.53
2023-05-14T07:56:02.684Z,101999.09
2023-05-14T07:58:30.055Z,102000.34
2023-05-14T08:00:57.709Z,101999.66
2023-05-14T08:03:24.451Z,102009.59
2023-05-14T08:05:52.517Z,101999.75
2023-05-14T08:08:22.742Z,102000.41
2023-05-14T08:10:51.511Z,102003.72
2023-05-14T08:13:18.319Z,102006.00
2023-05-14T08:15:44.793Z,102002.38
2023-05-14T08:18:11.294Z,102001.41
2023-05-14T08:20:37.802Z,102009.78
2023-05-14T08:23:04.388Z,101996.84
2023-05-14T08:25:31.093Z,102007.19
2023-05-14T08:27:59.738Z,102005.03
2023-05-14T08:30:26.823Z,102010.94
2023-05-14T08:32:53.879Z,102000.38
2023-05-14T08:35:20.458Z,101994.19
2023-05-14T08:37:47.006Z,101991.56
2023-05-14T08:40:13.650Z,101988.16
2023-05-14T08:42:45.218Z,101993.94
2023-05-14T08:45:25.865Z,101994.53
2023-05-14T08:47:55.848Z,101994.22
2023-05-14T08:50:23.769Z,101982.25
2023-05-14T08:52:51.664Z,101983.75
2023-05-14T08:55:19.065Z,101977.19
2023-05-14T08:57:46.473Z,101978.72
2023-05-14T09:00:16.188Z,101980.78
2023-05-14T09:02:44.821Z,101982.50
2023-05-14T09:05:12.561Z,101978.53
2023-05-14T09:07:39.199Z,101983.47
2023-05-14T09:10:06.427Z,101980.22
2023-05-14T09:12:32.888Z,101963.38
2023-05-14T09:14:59.313Z,101966.28
2023-05-14T09:17:27.994Z,101964.25
2023-05-14T09:19:54.834Z,101967.22
2023-05-14T09:22:21.629Z,101967.31
2023-05-14T09:25:06.504Z,101957.59
2023-05-14T09:27:35.204Z,101956.66
2023-05-14T09:30:10.060Z,101954.19
2023-05-14T09:32:38.224Z,101952.63
2023-05-14T09:35:18.997Z,101956.50
2023-05-14T09:37:48.352Z,101949.47
2023-05-14T09:40:15.798Z,101956.50
2023-05-14T09:42:42.392Z,101956.69
2023-05-14T09:45:10.215Z,101951.19
2023-05-14T09:47:38.317Z,101948.97
2023-05-14T09:50:06.359Z,101947.50
2023-05-14T09:52:33.274Z,101942.13
2023-05-14T09:55:00.603Z,101938.41
2023-05-14T09:57:27.387Z,101947.97
2023-05-14T09:59:54.207Z,101943.06
2023-05-14T10:02:37.642Z,101945.66
2023-05-14T10:05:08.268Z,101942.50
2023-05-14T10:07:49.594Z,101938.19
2023-05-14T10:10:19.603Z,101936.66
2023-05-14T10:12:57.651Z,101937.63
2023-05-14T10:15:59.112Z,101938.28
2023-05-14T10:18:31.791Z,101934.50
2023-05-14T10:21:05.780Z,101933.88
2023-05-14T10:23:32.542Z,101931.75
2023-05-14T10:25:59.765Z,101931.75
2023-05-14T10:28:26.742Z,101932.59
2023-05-14T10:30:54.403Z,101926.25
2023-05-14T10:33:21.081Z,101916.84
2023-05-14T10:36:07.476Z,101920.03
2023-05-14T10:38:36.162Z,101920.50
2023-05-14T10:41:07.095Z,101916.44
2023-05-14T10:43:38.510Z,101915.28
2023-05-14T10:46:05.854Z,101916.97
2023-05-14T10:48:33.434Z,101904.66
2023-05-14T10:51:01.491Z,101904.19
2023-05-14T10:53:33.698Z,101906.19
2023-05-14T10:56:11.778Z,101901.84
2023-05-14T10:58:40.004Z,101898.88
2023-05-14T11:01:08.259Z,101896.00
2023-05-14T11:03:42.593Z,101896.59
2023-05-14T11:06:11.127Z,101900.03
2023-05-14T11:08:38.839Z,101892.63
2023-05-14T11:11:06.610Z,101892.94
2023-05-14T11:13:34.738Z,101897.59
2023-05-14T11:16:11.986Z,101892.34
2023-05-14T11:18:53.778Z,101891.59
2023-05-14T11:21:20.701Z,101889.91
2023-05-14T11:23:47.203Z,101878.19
2023-05-14T11:26:13.773Z,101872.47
2023-05-14T11:28:40.400Z,101877.41
2023-05-14T11:31:07.276Z,101880.84
2023-05-14T11:33:33.758Z,101872.63
2023-05-14T11:36:00.222Z,101862.44
2023-05-14T11:38:26.668Z,101865.69
2023-05-14T11:40:58.561Z,101864.66
2023-05-14T11:43:29.539Z,101863.63
2023-05-14T11:45:57.332Z,101859.16
2023-05-14T11:48:24.088Z,101856.25
2023-05-14T11:50:52.882Z,101851.16
2023-05-14T11:53:28.077Z,101853.88
2023-05-14T11:55:55.239Z,101853.34
2023-05-14T11:58:21.979Z,101854.09
2023-05-14T12:00:52.715Z,101856.94
2023-05-14T12:03:26.790Z,101848.63
2023-05-14T12:06:00.990Z,101846.47
2023-05-14T12:08:31.962Z,101848.88
2023-05-14T12:11:00.468Z,101848.47
2023-05-14T12:13:30.859Z,101835.38
2023-05-14T12:16:00.407Z,101843.22
2023-05-14T12:18:31.837Z,101834.22
2023-05-14T12:21:05.082Z,101838.75
2023-05-14T12:23:32.497Z,101842.66
2023-05-14T12:26:17.216Z,101837.09
2023-05-14T12:28:47.697Z,101828.06
2023-05-14T12:31:15.661Z,101829.91
2023-05-14T12:33:42.138Z,101831.91
2023-05-14T12:38:40.944Z,101826.75
2023-05-14T12:41:07.428Z,101816.97
2023-05-14T12:43:33.922Z,101810.53
2023-05-14T12:46:00.488Z,101818.94
2023-05-14T12:48:26.946Z,101810.81
2023-05-14T12:50:53.429Z,101814.25
2023-05-14T12:53:19.897Z,101809.09
2023-05-14T12:55:46.644Z,101809.44
2023-05-14T12:58:13.165Z,101812.09
2023-05-14T13:00:39.741Z,101805.34
2023-05-14T13:03:06.349Z,101799.72
2023-05-14T13:05:33.297Z,101801.91
2023-05-14T13:08:02.258Z,101802.25
2023-05-14T13:10:28.747Z,101797.09
2023-05-14T13:12:56.396Z,101799.03
2023-05-14T13:15:23.341Z,101798.06
2023-05-14T13:17:50.056Z,101798.06
2023-05-14T13:20:18.257Z,101791.88
2023-05-14T13:22:45.088Z,101790.66
2023-05-14T13:25:11.601Z,101799.41
2023-05-14T13:27:38.132Z,101794.22
2023-05-14T13:30:04.961Z,101783.09
2023-05-14T13:32:31.591Z,101785.19
2023-05-14T13:34:58.117Z,101784.16
2023-05-14T13:37:25.789Z,101782.44
2023-05-14T13:39:52.348Z,101785.00
2023-05-14T13:42:18.805Z,101783.75
2023-05-14T13:44:45.321Z,101782.09
2023-05-14T13:47:13.239Z,101786.53
2023-05-14T13:49:40.727Z,101776.81
2023-05-14T13:52:07.537Z,101770.78
2023-05-14T13:54:35.684Z,101766.66
2023-05-14T13:57:02.311Z,101769.38
2023-05-14T13:59:28.919Z,101765.03
2023-05-14T14:01:55.448Z,101759.38
2023-05-14T14:04:22.208Z,101757.50
2023-05-14T14:06:49.171Z,101754.41
2023-05-14T14:09:15.891Z,101747.13
2023-05-14T14:11:42.436Z,101750.59
2023-05-14T14:14:10.542Z,101755.78
2023-05-14T14:16:37.250Z,101753.75
2023-05-14T14:19:03.980Z,101752.31
2023-05-14T14:21:31.344Z,101748.91
2023-05-14T14:23:57.956Z,101744.78
2023-05-14T14:26:24.601Z,101739.78
2023-05-14T14:28:51.373Z,101742.69
2023-05-14T14:31:17.857Z,101749.06
2023-05-14T14:33:44.344Z,101749.38
2023-05-14T14:36:11.346Z,101741.16
2023-05-14T14:38:39.400Z,101738.97
2023-05-14T14:41:10.472Z,101731.66
2023-05-14T14:43:38.243Z,101736.63
2023-05-14T14:46:04.905Z,101736.28
2023-05-14T14:48:37.841Z,101736.53
2023-05-14T14:51:08.697Z,101732.63
2023-05-14T14:53:36.775Z,101736.34
2023-05-14T14:56:03.920Z,101736.78
2023-05-14T14:58:31.324Z,101733.44
2023-05-14T15:00:58.416Z,101731.38
2023-05-14T15:03:25.633Z,101729.59
2023-05-14T15:05:53.707Z,101735.25
2023-05-14T15:08:27.584Z,101732.63
2023-05-14T15:10:57.443Z,101724.31
2023-05-14T15:13:24.765Z,101719.19
2023-05-14T15:15:52.478Z,101726.97
2023-05-14T15:18:19.158Z,101729.75
2023-05-14T15:20:45.701Z,101726.59
2023-05-14T15:23:12.218Z,101719.41
2023-05-14T15:25:38.880Z,101719.28
2023-05-14T15:28:08.585Z,101713.97
2023-05-14T15:30:35.194Z,101709.13
2023-05-14T15:33:01.907Z,101722.31
2023-05-14T15:35:29.868Z,101720.75
2023-05-14T15:37:59.174Z,101708.84
2023-05-14T15:40:27.403Z,101711.63
2023-05-14T15:42:54.052Z,101704.53
2023-05-14T15:45:20.782Z,101705.88
2023-05-14T15:47:50.856Z,101700.56
2023-05-14T15:50:17.468Z,101704.44
2023-05-14T15:52:44.010Z,101698.81
2023-05-14T15:55:11.042Z,101694.19
2023-05-14T15:57:37.712Z,101694.75
2023-05-14T16:00:11.039Z,101693.78
2023-05-14T16:02:38.746Z,101695.81
2023-05-14T16:05:05.788Z,101696.06
2023-05-14T16:07:33.055Z,101694.69
2023-05-14T16:10:02.418Z,101692.94
2023-05-14T16:12:30.603Z,101698.59
2023-05-14T16:15:00.329Z,101697.84
2023-05-14T16:17:28.136Z,101705.84
2023-05-14T16:19:56.278Z,101702.31
2023-05-14T16:22:23.225Z,101704.47
2023-05-14T16:24:49.695Z,101706.13
2023-05-14T16:27:18.396Z,101697.84
2023-05-14T16:29:45.489Z,101709.25
2023-05-14T16:32:14.893Z,101706.75
2023-05-14T16:34:41.500Z,101703.47
2023-05-14T16:37:08.190Z,101704.66
2023-05-14T16:39:34.662Z,101702.91
2023-05-14T16:42:03.501Z,101696.78
2023-05-14T16:44:29.926Z,101702.66
2023-05-14T16:46:56.408Z,101708.38
2023-05-14T16:49:23.038Z,101707.25
2023-05-14T16:51:49.819Z,101704.56
2023-05-14T16:54:16.382Z,101712.47
2023-05-14T16:56:48.236Z,101715.19
2023-05-14T16:59:15.304Z,101716.56
2023-05-14T17:01:42.885Z,101725.13
2023-05-14T17:04:10.204Z,101723.47
2023-05-14T17:06:37.088Z,101718.94
2023-05-14T17:09:04.022Z,101726.19
2023-05-14T17:11:33.365Z,101723.88
2023-05-14T17:13:59.918Z,101720.84
2023-05-14T17:16:27.184Z,101714.16
2023-05-14T17:18:53.859Z,101713.97
2023-05-14T17:21:20.437Z,101722.72
2023-05-14T17:23:46.908Z,101719.19
2023-05-14T17:26:13.377Z,101716.47
2023-05-14T17:28:39.844Z,101722.19
2023-05-14T17:31:06.510Z,101719.97
2023-05-14T17:33:34.689Z,101723.97
2023-05-14T17:36:01.252Z,101723.72
2023-05-14T17:38:27.706Z,101720.31
2023-05-14T17:40:57.085Z,101718.38
2023-05-14T17:43:25.696Z,101716.28
2023-05-14T17:45:54.346Z,101718.56
2023-05-14T17:48:22.711Z,101710.66
2023-05-14T17:50:49.318Z,101719.78
2023-05-14T17:53:15.816Z,101720.81
2023-05-14T17:55:43.646Z,101724.81
2023-05-14T17:58:13.412Z,101731.53
2023-05-14T18:00:40.353Z,101736.97
2023-05-14T18:03:07.969Z,101744.91
2023-05-14T18:05:34.981Z,101749.41
2023-05-14T18:08:01.497Z,101747.72
2023-05-14T18:10:29.514Z,101741.03
2023-05-14T18:12:56.545Z,101741.34
2023-05-14T18:15:25.934Z,101744.09
2023-05-14T18:17:52.818Z,101745.97
2023-05-14T18:20:19.696Z,101754.22
2023-05-14T18:22:49.328Z,101752.97
2023-05-14T18:25:21.478Z,101751.34
2023-05-14T18:27:47.876Z,101751.56
2023-05-14T18:30:15.931Z,101754.22
2023-05-14T18:32:45.058Z,101755.13
2023-05-14T18:35:13.096Z,101760.06
2023-05-14T18:37:39.973Z,101761.78
2023-05-14T18:40:07.403Z,101763.06
2023-05-14T18:42:34.356Z,101753.41
2023-05-14T18:45:01.700Z,101760.16
2023-05-14T18:47:28.338Z,101770.44
2023-05-14T18:49:57.719Z,101768.63
2023-05-14T18:52:26.283Z,101766.84
2023-05-14T18:54:53.864Z,101763.03
2023-05-14T18:57:21.258Z,101769.94
2023-05-14T18:59:47.823Z,101768.94
2023-05-14T19:02:14.519Z,101770.38
2023-05-14T19:04:51.065Z,101777.06
2023-05-14T19:07:19.026Z,101781.94
2023-05-14T19:09:45.613Z,101779.88
2023-05-14T19:12:12.371Z,101770.88
2023-05-14T19:14:38.816Z,101777.88
2023-05-14T19:17:05.783Z,101767.06
2023-05-14T19:19:32.733Z,101773.94
2023-05-14T19:21:59.277Z,101779.66
2023-05-14T19:24:25.877Z,101770.41
2023-05-14T19:26:52.672Z,101772.66
2023-05-14T19:29:19.277Z,101772.47
2023-05-14T19:31:46.217Z,101767.56
2023-05-14T19:34:12.996Z,101769.94
2023-05-14T19:36:39.531Z,101771.16
2023-05-14T19:39:06.138Z,101773.38
2023-05-14T19:41:32.620Z,101771.41
2023-05-14T19:44:02.189Z,101774.59
2023-05-14T19:46:29.118Z,101772.63
2023-05-14T19:48:55.852Z,101773.13
2023-05-14T19:51:23.734Z,101773.78
2023-05-14T19:53:50.259Z,101769.94
2023-05-14T19:56:16.840Z,101774.81
2023-05-14T19:58:44.631Z,101769.03
2023-05-14T20:01:12.012Z,101774.75
2023-05-14T20:03:38.796Z,101775.16
2023-05-14T20:06:06.605Z,101766.47
2023-05-14T20:08:33.333Z,101764.06
2023-05-14T20:10:59.853Z,101770.63
2023-05-14T20:13:26.281Z,101771.72
2023-05-14T20:15:52.892Z,101771.00
2023-05-14T20:18:19.340Z,101770.28
2023-05-14T20:20:45.897Z,101771.50
2023-05-14T20:23:12.448Z,101770.94
2023-05-14T20:25:39.278Z,101766.63
2023-05-14T20:28:05.766Z,101760.00
2023-05-14T20:30:32.564Z,101758.69
2023-05-14T20:32:59.557Z,101761.47
2023-05-14T20:35:26.524Z,101759.22
2023-05-14T20:37:56.309Z,101759.34
2023-05-14T20:40:22.885Z,101768.41
2023-05-14T20:42:50.444Z,101759.72
2023-05-14T20:45:17.031Z,101756.34
2023-05-14T20:47:43.512Z,101762.75
2023-05-14T20:50:10.233Z,101757.69
2023-05-14T20:52:36.757Z,101754.34
2023-05-14T20:55:03.406Z,101759.19
2023-05-14T20:57:30.283Z,101744.09
2023-05-14T20:59:56.882Z,101739.88
2023-05-14T21:02:23.549Z,101741.81
2023-05-14T21:04:50.829Z,101743.50
2023-05-14T21:07:17.484Z,101738.31
2023-05-14T21:09:46.483Z,101740.13
2023-05-14T21:12:12.958Z,101735.78
2023-05-14T21:14:39.423Z,101736.75
2023-05-14T21:17:06.110Z,101739.69
2023-05-14T21:19:32.848Z,101741.63
2023-05-14T21:21:59.438Z,101742.59
2023-05-14T21:24:25.893Z,101747.06
2023-05-14T21:26:53.699Z,101749.00
2023-05-14T21:29:20.286Z,101746.59
2023-05-14T21:31:48.483Z,101737.66
2023-05-14T21:34:14.974Z,101740.56
2023-05-14T21:36:41.659Z,101746.09
2023-05-14T21:39:08.105Z,101748.88
2023-05-14T21:41:34.560Z,101735.06
2023-05-14T21:44:01.081Z,101740.59
2023-05-14T21:46:28.967Z,101734.56
2023-05-14T21:48:56.516Z,101734.69
2023-05-14T21:51:23.129Z,101723.63
2023-05-14T21:53:49.911Z,101719.44
2023-05-14T21:56:16.554Z,101716.91
2023-05-14T21:58:44.212Z,101717.16
2023-05-14T22:01:11.547Z,101720.88
2023-05-14T22:03:38.517Z,101721.84
2023-05-14T22:06:06.808Z,101724.50
2023-05-14T22:08:33.435Z,101731.63
2023-05-14T22:10:59.918Z,101726.41
2023-05-14T22:13:26.454Z,101717.84
2023-05-14T22:16:01.499Z,101717.16
2023-05-14T22:18:38.650Z,101712.94
2023-05-14T22:21:05.301Z,101709.56
2023-05-14T22:23:34.429Z,101704.38
2023-05-14T22:26:01.075Z,101712.44
2023-05-14T22:28:27.577Z,101708.00
2023-05-14T22:30:54.396Z,101712.44
2023-05-14T22:33:20.968Z,101713.28
2023-05-14T22:35:48.989Z,101708.00
2023-05-14T22:38:15.677Z,101706.31
2023-05-14T22:40:42.433Z,101700.28
2023-05-14T22:43:08.896Z,101700.28
2023-05-14T22:45:35.904Z,101698.59
2023-05-14T22:48:02.487Z,101698.59
2023-05-14T22:50:28.969Z,101686.31
2023-05-14T22:52:55.409Z,101688.13
2023-05-14T22:55:21.924Z,101685.59
2023-05-14T22:57:48.437Z,101694.38
2023-05-14T23:00:15.612Z,101680.41
2023-05-14T23:02:42.404Z,101674.41
2023-05-14T23:05:09.426Z,101674.41
2023-05-14T23:07:37.436Z,101677.19
2023-05-14T23:10:04.240Z,101674.78
2023-05-14T23:12:30.706Z,101675.63
2023-05-14T23:14:59.167Z,101670.19
2023-05-14T23:17:28.827Z,101679.84
2023-05-14T23:19:55.549Z,101685.97
2023-05-14T23:22:22.238Z,101678.88
2023-05-14T23:24:48.920Z,101679.72
2023-05-14T23:27:15.549Z,101672.72
2023-05-14T23:29:42.090Z,101667.56
2023-05-14T23:32:09.118Z,101667.44
2023-05-14T23:34:35.921Z,101660.31
2023-05-14T23:37:02.515Z,101662.97
2023-05-14T23:39:33.549Z,101655.03
2023-05-14T23:42:00.166Z,101662.00
2023-05-14T23:44:26.787Z,101646.09
2023-05-14T23:46:53.614Z,101641.66
2023-05-14T23:49:20.278Z,101631.88
2023-05-14T23:51:46.886Z,101635.34
2023-05-14T23:54:13.420Z,101630.19
2023-05-14T23:56:40.563Z,101625.03
2023-05-14T23:59:07.268Z,101630.69
